sensor_id;sensor_type;location;lat;lon;timestamp;P1;durP1;ratioP1;P2;durP2;ratioP2
17852;SDS011;9052;53.494;14.376;2023-02-15T00:01:46;16.20;;;11.20;;
17852;SDS011;9052;53.494;14.376;2023-02-15T00:04:14;19.67;;;11.80;;
17852;SDS011;9052;53.494;14.376;2023-02-15T00:06:41;19.40;;;13.23;;
17852;SDS011;9052;53.494;14.376;2023-02-15T00:09:08;23.90;;;14.73;;
17852;SDS011;9052;53.494;14.376;2023-02-15T00:11:35;26.63;;;14.70;;
17852;SDS011;9052;53.494;14.376;2023-02-15T00:14:17;26.20;;;15.13;;
17852;SDS011;9052;53.494;14.376;2023-02-15T00:16:44;26.93;;;15.17;;
17852;SDS011;9052;53.494;14.376;2023-02-15T00:19:12;26.40;;;15.77;;
17852;SDS011;9052;53.494;14.376;2023-02-15T00:21:40;28.40;;;19.67;;
17852;SDS011;9052;53.494;14.376;2023-02-15T00:24:07;30.53;;;17.77;;
17852;SDS011;9052;53.494;14.376;2023-02-15T00:26:35;20.70;;;14.20;;
17852;SDS011;9052;53.494;14.376;2023-02-15T00:29:02;19.63;;;13.20;;
17852;SDS011;9052;53.494;14.376;2023-02-15T00:31:30;23.63;;;15.80;;
17852;SDS011;9052;53.494;14.376;2023-02-15T00:34:00;25.87;;;15.57;;
17852;SDS011;9052;53.494;14.376;2023-02-15T00:36:28;22.90;;;14.93;;
17852;SDS011;9052;53.494;14.376;2023-02-15T00:38:54;41.63;;;14.27;;
17852;SDS011;9052;53.494;14.376;2023-02-15T00:41:21;20.93;;;15.07;;
17852;SDS011;9052;53.494;14.376;2023-02-15T00:43:47;23.47;;;13.03;;
17852;SDS011;9052;53.494;14.376;2023-02-15T00:46:14;17.33;;;12.10;;
17852;SDS011;9052;53.494;14.376;2023-02-15T00:48:42;35.63;;;14.30;;
17852;SDS011;9052;53.494;14.376;2023-02-15T00:51:09;16.27;;;11.63;;
17852;SDS011;9052;53.494;14.376;2023-02-15T00:53:36;29.53;;;14.43;;
17852;SDS011;9052;53.494;14.376;2023-02-15T00:56:02;23.07;;;14.97;;
17852;SDS011;9052;53.494;14.376;2023-02-15T00:58:29;28.33;;;17.50;;
17852;SDS011;9052;53.494;14.376;2023-02-15T01:01:01;31.90;;;19.20;;
17852;SDS011;9052;53.494;14.376;2023-02-15T01:03:29;47.80;;;22.10;;
17852;SDS011;9052;53.494;14.376;2023-02-15T01:05:57;30.50;;;19.07;;
17852;SDS011;9052;53.494;14.376;2023-02-15T01:08:23;31.67;;;19.33;;
17852;SDS011;9052;53.494;14.376;2023-02-15T01:10:50;31.30;;;20.17;;
17852;SDS011;9052;53.494;14.376;2023-02-15T01:13:17;40.27;;;20.57;;
17852;SDS011;9052;53.494;14.376;2023-02-15T01:15:44;40.53;;;20.07;;
17852;SDS011;9052;53.494;14.376;2023-02-15T01:18:11;37.10;;;19.30;;
17852;SDS011;9052;53.494;14.376;2023-02-15T01:20:39;33.23;;;20.07;;
17852;SDS011;9052;53.494;14.376;2023-02-15T01:23:08;33.40;;;20.90;;
17852;SDS011;9052;53.494;14.376;2023-02-15T01:25:35;36.43;;;20.73;;
17852;SDS011;9052;53.494;14.376;2023-02-15T01:28:02;33.63;;;17.03;;
17852;SDS011;9052;53.494;14.376;2023-02-15T01:30:29;31.37;;;18.20;;
17852;SDS011;9052;53.494;14.376;2023-02-15T01:32:56;36.77;;;18.70;;
17852;SDS011;9052;53.494;14.376;2023-02-15T01:35:23;27.17;;;16.43;;
17852;SDS011;9052;53.494;14.376;2023-02-15T01:37:50;29.97;;;15.20;;
17852;SDS011;9052;53.494;14.376;2023-02-15T01:40:18;63.90;;;29.67;;
17852;SDS011;9052;53.494;14.376;2023-02-15T01:42:45;36.40;;;18.80;;
17852;SDS011;9052;53.494;14.376;2023-02-15T01:45:16;32.40;;;15.70;;
17852;SDS011;9052;53.494;14.376;2023-02-15T01:47:47;29.40;;;16.87;;
17852;SDS011;9052;53.494;14.376;2023-02-15T01:50:16;31.33;;;15.20;;
17852;SDS011;9052;53.494;14.376;2023-02-15T01:52:47;25.17;;;15.83;;
17852;SDS011;9052;53.494;14.376;2023-02-15T01:55:18;19.33;;;13.43;;
17852;SDS011;9052;53.494;14.376;2023-02-15T01:57:45;24.60;;;13.63;;
17852;SDS011;9052;53.494;14.376;2023-02-15T02:00:13;14.67;;;13.00;;
17852;SDS011;9052;53.494;14.376;2023-02-15T02:02:42;20.33;;;14.60;;
17852;SDS011;9052;53.494;14.376;2023-02-15T02:05:09;29.73;;;14.27;;
17852;SDS011;9052;53.494;14.376;2023-02-15T02:07:37;16.73;;;12.60;;
17852;SDS011;9052;53.494;14.376;2023-02-15T02:10:07;19.83;;;13.00;;
17852;SDS011;9052;53.494;14.376;2023-02-15T02:12:36;24.60;;;15.70;;
17852;SDS011;9052;53.494;14.376;2023-02-15T02:15:04;29.00;;;17.17;;
17852;SDS011;9052;53.494;14.376;2023-02-15T02:17:32;23.67;;;15.83;;
17852;SDS011;9052;53.494;14.376;2023-02-15T02:20:15;26.43;;;14.03;;
17852;SDS011;9052;53.494;14.376;2023-02-15T02:28:51;16.67;;;13.43;;
17852;SDS011;9052;53.494;14.376;2023-02-15T02:34:18;17.20;;;13.00;;
17852;SDS011;9052;53.494;14.376;2023-02-15T02:36:49;25.43;;;14.63;;
17852;SDS011;9052;53.494;14.376;2023-02-15T02:39:21;26.80;;;15.00;;
17852;SDS011;9052;53.494;14.376;2023-02-15T02:41:51;23.17;;;15.57;;
17852;SDS011;9052;53.494;14.376;2023-02-15T02:44:22;28.97;;;15.67;;
17852;SDS011;9052;53.494;14.376;2023-02-15T02:46:52;31.53;;;18.00;;
17852;SDS011;9052;53.494;14.376;2023-02-15T02:49:30;22.20;;;16.47;;
17852;SDS011;9052;53.494;14.376;2023-02-15T02:51:58;28.13;;;19.23;;
17852;SDS011;9052;53.494;14.376;2023-02-15T02:54:26;29.43;;;17.60;;
17852;SDS011;9052;53.494;14.376;2023-02-15T02:56:53;32.67;;;20.13;;
17852;SDS011;9052;53.494;14.376;2023-02-15T02:59:23;36.83;;;20.50;;
17852;SDS011;9052;53.494;14.376;2023-02-15T03:01:53;40.60;;;24.53;;
17852;SDS011;9052;53.494;14.376;2023-02-15T03:04:22;43.13;;;23.73;;
17852;SDS011;9052;53.494;14.376;2023-02-15T03:06:54;44.33;;;24.20;;
17852;SDS011;9052;53.494;14.376;2023-02-15T03:09:24;60.03;;;28.30;;
17852;SDS011;9052;53.494;14.376;2023-02-15T03:12:06;61.80;;;29.80;;
17852;SDS011;9052;53.494;14.376;2023-02-15T03:14:34;49.13;;;29.47;;
17852;SDS011;9052;53.494;14.376;2023-02-15T03:17:00;51.07;;;28.20;;
17852;SDS011;9052;53.494;14.376;2023-02-15T03:19:29;53.27;;;32.90;;
17852;SDS011;9052;53.494;14.376;2023-02-15T03:22:00;59.83;;;35.53;;
17852;SDS011;9052;53.494;14.376;2023-02-15T03:24:34;64.20;;;36.47;;
17852;SDS011;9052;53.494;14.376;2023-02-15T03:27:02;69.43;;;36.43;;
17852;SDS011;9052;53.494;14.376;2023-02-15T03:29:30;63.20;;;37.30;;
17852;SDS011;9052;53.494;14.376;2023-02-15T03:31:58;76.97;;;39.50;;
17852;SDS011;9052;53.494;14.376;2023-02-15T03:34:27;78.50;;;38.83;;
17852;SDS011;9052;53.494;14.376;2023-02-15T03:36:56;71.40;;;38.87;;
17852;SDS011;9052;53.494;14.376;2023-02-15T03:39:29;66.17;;;38.70;;
17852;SDS011;9052;53.494;14.376;2023-02-15T03:41:58;64.03;;;38.50;;
17852;SDS011;9052;53.494;14.376;2023-02-15T03:44:30;61.23;;;36.30;;
17852;SDS011;9052;53.494;14.376;2023-02-15T03:46:59;71.30;;;41.80;;
17852;SDS011;9052;53.494;14.376;2023-02-15T03:49:29;68.97;;;40.03;;
17852;SDS011;9052;53.494;14.376;2023-02-15T03:52:02;72.37;;;40.80;;
17852;SDS011;9052;53.494;14.376;2023-02-15T03:54:29;75.17;;;42.60;;
17852;SDS011;9052;53.494;14.376;2023-02-15T03:57:12;91.23;;;44.97;;
17852;SDS011;9052;53.494;14.376;2023-02-15T03:59:58;77.80;;;42.27;;
17852;SDS011;9052;53.494;14.376;2023-02-15T04:02:46;73.07;;;42.17;;
17852;SDS011;9052;53.494;14.376;2023-02-15T04:05:21;102.37;;;42.33;;
17852;SDS011;9052;53.494;14.376;2023-02-15T04:07:49;79.43;;;42.57;;
17852;SDS011;9052;53.494;14.376;2023-02-15T04:10:16;79.80;;;43.47;;
17852;SDS011;9052;53.494;14.376;2023-02-15T04:13:00;77.47;;;40.17;;
17852;SDS011;9052;53.494;14.376;2023-02-15T04:15:26;78.23;;;38.87;;
17852;SDS011;9052;53.494;14.376;2023-02-15T04:18:10;90.53;;;40.30;;
17852;SDS011;9052;53.494;14.376;2023-02-15T04:20:37;70.93;;;40.23;;
17852;SDS011;9052;53.494;14.376;2023-02-15T04:23:22;72.07;;;37.60;;
17852;SDS011;9052;53.494;14.376;2023-02-15T04:26:06;69.33;;;35.73;;
17852;SDS011;9052;53.494;14.376;2023-02-15T04:28:33;63.27;;;36.77;;
17852;SDS011;9052;53.494;14.376;2023-02-15T04:30:59;79.03;;;39.60;;
17852;SDS011;9052;53.494;14.376;2023-02-15T04:33:26;79.17;;;39.63;;
17852;SDS011;9052;53.494;14.376;2023-02-15T04:35:53;68.10;;;36.83;;
17852;SDS011;9052;53.494;14.376;2023-02-15T04:38:19;77.40;;;37.10;;
17852;SDS011;9052;53.494;14.376;2023-02-15T04:40:50;73.03;;;37.80;;
17852;SDS011;9052;53.494;14.376;2023-02-15T04:43:17;64.73;;;37.90;;
17852;SDS011;9052;53.494;14.376;2023-02-15T04:45:47;73.17;;;37.83;;
17852;SDS011;9052;53.494;14.376;2023-02-15T04:48:15;71.33;;;36.03;;
17852;SDS011;9052;53.494;14.376;2023-02-15T04:50:42;74.23;;;33.67;;
17852;SDS011;9052;53.494;14.376;2023-02-15T04:53:08;69.50;;;35.40;;
17852;SDS011;9052;53.494;14.376;2023-02-15T04:55:35;71.23;;;37.53;;
17852;SDS011;9052;53.494;14.376;2023-02-15T04:58:03;73.80;;;39.77;;
17852;SDS011;9052;53.494;14.376;2023-02-15T05:00:30;70.73;;;37.77;;
17852;SDS011;9052;53.494;14.376;2023-02-15T05:02:56;82.53;;;37.57;;
17852;SDS011;9052;53.494;14.376;2023-02-15T05:05:23;81.40;;;36.43;;
17852;SDS011;9052;53.494;14.376;2023-02-15T05:07:50;71.37;;;37.23;;
17852;SDS011;9052;53.494;14.376;2023-02-15T05:10:16;70.77;;;36.30;;
17852;SDS011;9052;53.494;14.376;2023-02-15T05:12:43;72.20;;;39.23;;
17852;SDS011;9052;53.494;14.376;2023-02-15T05:15:11;85.97;;;39.93;;
17852;SDS011;9052;53.494;14.376;2023-02-15T05:17:38;86.10;;;40.50;;
17852;SDS011;9052;53.494;14.376;2023-02-15T05:20:05;73.97;;;37.17;;
17852;SDS011;9052;53.494;14.376;2023-02-15T05:22:33;71.60;;;37.20;;
17852;SDS011;9052;53.494;14.376;2023-02-15T05:24:59;81.93;;;36.37;;
17852;SDS011;9052;53.494;14.376;2023-02-15T05:27:43;69.97;;;35.70;;
17852;SDS011;9052;53.494;14.376;2023-02-15T05:30:29;57.43;;;35.07;;
17852;SDS011;9052;53.494;14.376;2023-02-15T05:32:55;62.90;;;32.87;;
17852;SDS011;9052;53.494;14.376;2023-02-15T05:35:22;77.07;;;35.57;;
17852;SDS011;9052;53.494;14.376;2023-02-15T05:37:49;63.43;;;35.77;;
17852;SDS011;9052;53.494;14.376;2023-02-15T05:40:15;69.57;;;38.27;;
17852;SDS011;9052;53.494;14.376;2023-02-15T05:42:42;65.00;;;33.87;;
17852;SDS011;9052;53.494;14.376;2023-02-15T05:45:09;69.20;;;32.97;;
17852;SDS011;9052;53.494;14.376;2023-02-15T05:47:37;65.23;;;34.20;;
17852;SDS011;9052;53.494;14.376;2023-02-15T05:50:04;60.93;;;33.63;;
17852;SDS011;9052;53.494;14.376;2023-02-15T05:52:31;57.03;;;30.17;;
17852;SDS011;9052;53.494;14.376;2023-02-15T05:54:58;66.50;;;33.57;;
17852;SDS011;9052;53.494;14.376;2023-02-15T05:57:25;51.50;;;29.40;;
17852;SDS011;9052;53.494;14.376;2023-02-15T05:59:52;69.53;;;32.80;;
17852;SDS011;9052;53.494;14.376;2023-02-15T06:02:18;65.77;;;35.30;;
17852;SDS011;9052;53.494;14.376;2023-02-15T06:04:46;65.53;;;34.10;;
17852;SDS011;9052;53.494;14.376;2023-02-15T06:07:13;93.57;;;36.20;;
17852;SDS011;9052;53.494;14.376;2023-02-15T06:09:39;114.37;;;49.07;;
17852;SDS011;9052;53.494;14.376;2023-02-15T06:12:06;65.37;;;35.90;;
17852;SDS011;9052;53.494;14.376;2023-02-15T06:14:33;66.07;;;34.50;;
17852;SDS011;9052;53.494;14.376;2023-02-15T06:16:59;66.33;;;34.80;;
17852;SDS011;9052;53.494;14.376;2023-02-15T06:19:26;58.67;;;32.53;;
17852;SDS011;9052;53.494;14.376;2023-02-15T06:21:54;65.10;;;34.00;;
17852;SDS011;9052;53.494;14.376;2023-02-15T06:24:20;62.57;;;32.80;;
17852;SDS011;9052;53.494;14.376;2023-02-15T06:26:47;73.47;;;32.57;;
17852;SDS011;9052;53.494;14.376;2023-02-15T06:29:14;53.50;;;32.90;;
17852;SDS011;9052;53.494;14.376;2023-02-15T06:31:41;71.20;;;32.23;;
17852;SDS011;9052;53.494;14.376;2023-02-15T06:34:07;60.90;;;32.73;;
17852;SDS011;9052;53.494;14.376;2023-02-15T06:36:34;89.53;;;35.10;;
17852;SDS011;9052;53.494;14.376;2023-02-15T06:39:03;75.67;;;36.57;;
17852;SDS011;9052;53.494;14.376;2023-02-15T06:41:30;63.57;;;33.20;;
17852;SDS011;9052;53.494;14.376;2023-02-15T06:43:56;98.43;;;51.27;;
17852;SDS011;9052;53.494;14.376;2023-02-15T06:46:23;93.23;;;46.00;;
17852;SDS011;9052;53.494;14.376;2023-02-15T06:48:50;126.77;;;56.87;;
17852;SDS011;9052;53.494;14.376;2023-02-15T06:51:16;107.33;;;49.27;;
17852;SDS011;9052;53.494;14.376;2023-02-15T06:53:43;106.70;;;49.00;;
17852;SDS011;9052;53.494;14.376;2023-02-15T06:56:11;68.23;;;34.83;;
17852;SDS011;9052;53.494;14.376;2023-02-15T06:58:38;74.30;;;36.40;;
17852;SDS011;9052;53.494;14.376;2023-02-15T07:01:06;68.97;;;33.87;;
17852;SDS011;9052;53.494;14.376;2023-02-15T07:03:33;72.03;;;33.33;;
17852;SDS011;9052;53.494;14.376;2023-02-15T07:06:01;57.27;;;32.40;;
17852;SDS011;9052;53.494;14.376;2023-02-15T07:08:28;80.80;;;39.03;;
17852;SDS011;9052;53.494;14.376;2023-02-15T07:10:55;115.90;;;56.90;;
17852;SDS011;9052;53.494;14.376;2023-02-15T07:13:45;94.83;;;40.53;;
17852;SDS011;9052;53.494;14.376;2023-02-15T07:16:10;103.13;;;42.40;;
17852;SDS011;9052;53.494;14.376;2023-02-15T07:18:38;122.00;;;57.03;;
17852;SDS011;9052;53.494;14.376;2023-02-15T07:21:04;109.87;;;54.43;;
17852;SDS011;9052;53.494;14.376;2023-02-15T07:23:33;162.90;;;71.73;;
17852;SDS011;9052;53.494;14.376;2023-02-15T07:26:00;161.73;;;71.50;;
17852;SDS011;9052;53.494;14.376;2023-02-15T07:28:26;113.17;;;53.00;;
17852;SDS011;9052;53.494;14.376;2023-02-15T07:30:55;121.10;;;48.43;;
17852;SDS011;9052;53.494;14.376;2023-02-15T07:33:22;94.57;;;40.37;;
17852;SDS011;9052;53.494;14.376;2023-02-15T07:35:49;94.03;;;43.00;;
17852;SDS011;9052;53.494;14.376;2023-02-15T07:38:17;83.10;;;37.00;;
17852;SDS011;9052;53.494;14.376;2023-02-15T07:40:44;67.30;;;38.67;;
17852;SDS011;9052;53.494;14.376;2023-02-15T07:43:11;100.60;;;42.13;;
17852;SDS011;9052;53.494;14.376;2023-02-15T07:45:38;82.83;;;43.90;;
17852;SDS011;9052;53.494;14.376;2023-02-15T07:48:07;68.87;;;37.70;;
17852;SDS011;9052;53.494;14.376;2023-02-15T07:50:34;79.00;;;40.97;;
17852;SDS011;9052;53.494;14.376;2023-02-15T07:53:01;95.23;;;43.63;;
17852;SDS011;9052;53.494;14.376;2023-02-15T07:55:28;93.90;;;44.67;;
17852;SDS011;9052;53.494;14.376;2023-02-15T07:57:54;86.30;;;38.97;;
17852;SDS011;9052;53.494;14.376;2023-02-15T08:00:22;79.17;;;42.20;;
17852;SDS011;9052;53.494;14.376;2023-02-15T08:02:50;91.03;;;40.90;;
17852;SDS011;9052;53.494;14.376;2023-02-15T08:05:39;86.00;;;39.80;;
17852;SDS011;9052;53.494;14.376;2023-02-15T08:08:06;96.27;;;42.67;;
17852;SDS011;9052;53.494;14.376;2023-02-15T08:10:33;83.87;;;42.30;;
17852;SDS011;9052;53.494;14.376;2023-02-15T08:13:19;92.47;;;44.70;;
17852;SDS011;9052;53.494;14.376;2023-02-15T08:15:47;96.80;;;43.23;;
17852;SDS011;9052;53.494;14.376;2023-02-15T08:18:14;102.47;;;46.83;;
17852;SDS011;9052;53.494;14.376;2023-02-15T08:20:43;105.03;;;45.00;;
17852;SDS011;9052;53.494;14.376;2023-02-15T08:23:15;92.20;;;45.70;;
17852;SDS011;9052;53.494;14.376;2023-02-15T08:25:42;117.87;;;49.80;;
17852;SDS011;9052;53.494;14.376;2023-02-15T08:28:08;95.07;;;45.27;;
17852;SDS011;9052;53.494;14.376;2023-02-15T08:30:35;109.00;;;48.30;;
17852;SDS011;9052;53.494;14.376;2023-02-15T08:33:02;97.67;;;45.23;;
17852;SDS011;9052;53.494;14.376;2023-02-15T08:35:29;105.47;;;46.70;;
17852;SDS011;9052;53.494;14.376;2023-02-15T08:37:57;102.70;;;47.37;;
17852;SDS011;9052;53.494;14.376;2023-02-15T08:40:23;111.50;;;48.47;;
17852;SDS011;9052;53.494;14.376;2023-02-15T08:42:50;106.70;;;51.87;;
17852;SDS011;9052;53.494;14.376;2023-02-15T08:45:17;106.93;;;50.93;;
17852;SDS011;9052;53.494;14.376;2023-02-15T08:47:43;73.23;;;40.10;;
17852;SDS011;9052;53.494;14.376;2023-02-15T08:50:10;80.13;;;46.57;;
17852;SDS011;9052;53.494;14.376;2023-02-15T08:52:37;112.97;;;47.47;;
17852;SDS011;9052;53.494;14.376;2023-02-15T08:55:05;88.70;;;46.70;;
17852;SDS011;9052;53.494;14.376;2023-02-15T08:57:32;86.43;;;46.03;;
17852;SDS011;9052;53.494;14.376;2023-02-15T08:59:58;74.03;;;41.03;;
17852;SDS011;9052;53.494;14.376;2023-02-15T09:02:25;81.40;;;42.43;;
17852;SDS011;9052;53.494;14.376;2023-02-15T09:04:51;70.00;;;37.00;;
17852;SDS011;9052;53.494;14.376;2023-02-15T09:07:18;66.10;;;36.73;;
17852;SDS011;9052;53.494;14.376;2023-02-15T09:09:45;74.67;;;41.13;;
17852;SDS011;9052;53.494;14.376;2023-02-15T09:12:13;65.20;;;33.97;;
17852;SDS011;9052;53.494;14.376;2023-02-15T09:14:40;52.37;;;34.20;;
17852;SDS011;9052;53.494;14.376;2023-02-15T09:17:06;57.53;;;35.63;;
17852;SDS011;9052;53.494;14.376;2023-02-15T09:19:33;59.13;;;34.20;;
17852;SDS011;9052;53.494;14.376;2023-02-15T09:22:00;54.67;;;34.63;;
17852;SDS011;9052;53.494;14.376;2023-02-15T09:24:26;58.57;;;34.43;;
17852;SDS011;9052;53.494;14.376;2023-02-15T09:26:53;47.87;;;33.90;;
17852;SDS011;9052;53.494;14.376;2023-02-15T09:29:21;46.37;;;32.60;;
17852;SDS011;9052;53.494;14.376;2023-02-15T09:31:49;51.30;;;32.40;;
17852;SDS011;9052;53.494;14.376;2023-02-15T09:34:16;52.40;;;29.90;;
17852;SDS011;9052;53.494;14.376;2023-02-15T09:36:44;50.83;;;34.97;;
17852;SDS011;9052;53.494;14.376;2023-02-15T09:39:12;51.67;;;34.33;;
17852;SDS011;9052;53.494;14.376;2023-02-15T09:44:56;56.27;;;34.00;;
17852;SDS011;9052;53.494;14.376;2023-02-15T09:47:39;50.67;;;32.83;;
17852;SDS011;9052;53.494;14.376;2023-02-15T09:50:15;53.23;;;34.67;;
17852;SDS011;9052;53.494;14.376;2023-02-15T09:52:48;48.80;;;32.93;;
17852;SDS011;9052;53.494;14.376;2023-02-15T09:58:17;55.00;;;34.50;;
17852;SDS011;9052;53.494;14.376;2023-02-15T10:00:51;61.87;;;32.70;;
17852;SDS011;9052;53.494;14.376;2023-02-15T10:03:34;45.50;;;32.73;;
17852;SDS011;9052;53.494;14.376;2023-02-15T10:06:11;72.27;;;34.13;;
17852;SDS011;9052;53.494;14.376;2023-02-15T10:08:52;52.93;;;35.50;;
17852;SDS011;9052;53.494;14.376;2023-02-15T10:11:25;64.50;;;34.27;;
17852;SDS011;9052;53.494;14.376;2023-02-15T10:14:19;61.13;;;35.20;;
17852;SDS011;9052;53.494;14.376;2023-02-15T10:16:55;60.67;;;33.53;;
17852;SDS011;9052;53.494;14.376;2023-02-15T10:19:28;51.53;;;35.43;;
17852;SDS011;9052;53.494;14.376;2023-02-15T10:22:04;55.27;;;34.17;;
17852;SDS011;9052;53.494;14.376;2023-02-15T10:24:48;62.70;;;34.73;;
17852;SDS011;9052;53.494;14.376;2023-02-15T10:27:23;58.50;;;34.40;;
17852;SDS011;9052;53.494;14.376;2023-02-15T10:29:52;49.97;;;32.00;;
17852;SDS011;9052;53.494;14.376;2023-02-15T10:32:27;54.10;;;34.47;;
17852;SDS011;9052;53.494;14.376;2023-02-15T10:34:57;61.03;;;34.60;;
17852;SDS011;9052;53.494;14.376;2023-02-15T10:37:34;57.03;;;33.60;;
17852;SDS011;9052;53.494;14.376;2023-02-15T10:40:11;57.33;;;35.83;;
17852;SDS011;9052;53.494;14.376;2023-02-15T10:42:46;54.77;;;32.17;;
17852;SDS011;9052;53.494;14.376;2023-02-15T10:45:23;56.23;;;33.97;;
17852;SDS011;9052;53.494;14.376;2023-02-15T10:47:58;53.30;;;33.33;;
17852;SDS011;9052;53.494;14.376;2023-02-15T10:50:33;65.73;;;33.43;;
17852;SDS011;9052;53.494;14.376;2023-02-15T10:53:09;51.07;;;33.13;;
17852;SDS011;9052;53.494;14.376;2023-02-15T10:55:55;56.60;;;35.47;;
17852;SDS011;9052;53.494;14.376;2023-02-15T10:58:26;52.83;;;32.57;;
17852;SDS011;9052;53.494;14.376;2023-02-15T11:01:00;59.93;;;33.63;;
17852;SDS011;9052;53.494;14.376;2023-02-15T11:03:36;57.27;;;34.73;;
17852;SDS011;9052;53.494;14.376;2023-02-15T11:06:10;54.63;;;33.00;;
17852;SDS011;9052;53.494;14.376;2023-02-15T11:08:40;60.13;;;34.00;;
17852;SDS011;9052;53.494;14.376;2023-02-15T11:11:10;53.87;;;33.97;;
17852;SDS011;9052;53.494;14.376;2023-02-15T11:13:39;52.53;;;32.90;;
17852;SDS011;9052;53.494;14.376;2023-02-15T11:16:08;57.47;;;34.63;;
17852;SDS011;9052;53.494;14.376;2023-02-15T11:18:40;54.97;;;36.47;;
17852;SDS011;9052;53.494;14.376;2023-02-15T11:21:09;60.33;;;35.07;;
17852;SDS011;9052;53.494;14.376;2023-02-15T11:23:40;54.20;;;35.23;;
17852;SDS011;9052;53.494;14.376;2023-02-15T11:26:11;63.97;;;34.50;;
17852;SDS011;9052;53.494;14.376;2023-02-15T11:28:40;48.20;;;32.10;;
17852;SDS011;9052;53.494;14.376;2023-02-15T11:31:11;51.70;;;33.17;;
17852;SDS011;9052;53.494;14.376;2023-02-15T11:33:43;53.00;;;35.83;;
17852;SDS011;9052;53.494;14.376;2023-02-15T11:36:12;56.43;;;33.83;;
17852;SDS011;9052;53.494;14.376;2023-02-15T11:38:42;54.20;;;35.37;;
17852;SDS011;9052;53.494;14.376;2023-02-15T11:41:10;56.97;;;35.47;;
17852;SDS011;9052;53.494;14.376;2023-02-15T11:43:39;57.63;;;35.50;;
17852;SDS011;9052;53.494;14.376;2023-02-15T11:46:07;67.47;;;36.40;;
17852;SDS011;9052;53.494;14.376;2023-02-15T11:48:37;54.03;;;33.47;;
17852;SDS011;9052;53.494;14.376;2023-02-15T11:51:08;67.03;;;39.60;;
17852;SDS011;9052;53.494;14.376;2023-02-15T11:53:38;64.37;;;38.50;;
17852;SDS011;9052;53.494;14.376;2023-02-15T11:56:09;66.47;;;40.40;;
17852;SDS011;9052;53.494;14.376;2023-02-15T11:58:40;60.50;;;35.73;;
17852;SDS011;9052;53.494;14.376;2023-02-15T12:01:10;67.60;;;41.10;;
17852;SDS011;9052;53.494;14.376;2023-02-15T12:03:43;76.83;;;40.93;;
17852;SDS011;9052;53.494;14.376;2023-02-15T12:06:14;70.40;;;41.13;;
17852;SDS011;9052;53.494;14.376;2023-02-15T12:08:46;69.40;;;41.87;;
17852;SDS011;9052;53.494;14.376;2023-02-15T12:11:17;77.13;;;42.27;;
17852;SDS011;9052;53.494;14.376;2023-02-15T12:13:55;64.13;;;39.97;;
17852;SDS011;9052;53.494;14.376;2023-02-15T12:16:23;69.43;;;36.87;;
17852;SDS011;9052;53.494;14.376;2023-02-15T12:18:50;63.03;;;40.97;;
17852;SDS011;9052;53.494;14.376;2023-02-15T12:21:25;67.40;;;42.10;;
17852;SDS011;9052;53.494;14.376;2023-02-15T12:23:54;70.70;;;38.80;;
17852;SDS011;9052;53.494;14.376;2023-02-15T12:26:23;70.00;;;42.30;;
17852;SDS011;9052;53.494;14.376;2023-02-15T12:28:51;74.17;;;38.40;;
17852;SDS011;9052;53.494;14.376;2023-02-15T12:31:20;75.27;;;43.90;;
17852;SDS011;9052;53.494;14.376;2023-02-15T12:33:48;69.80;;;38.63;;
17852;SDS011;9052;53.494;14.376;2023-02-15T12:36:17;75.67;;;42.73;;
17852;SDS011;9052;53.494;14.376;2023-02-15T12:38:50;75.47;;;43.00;;
17852;SDS011;9052;53.494;14.376;2023-02-15T12:41:29;69.23;;;39.07;;
17852;SDS011;9052;53.494;14.376;2023-02-15T12:44:02;66.87;;;40.07;;
17852;SDS011;9052;53.494;14.376;2023-02-15T12:46:31;70.23;;;42.47;;
17852;SDS011;9052;53.494;14.376;2023-02-15T12:49:17;63.30;;;39.20;;
17852;SDS011;9052;53.494;14.376;2023-02-15T12:51:46;62.97;;;37.67;;
17852;SDS011;9052;53.494;14.376;2023-02-15T12:54:21;65.60;;;40.30;;
17852;SDS011;9052;53.494;14.376;2023-02-15T12:56:54;68.67;;;39.60;;
17852;SDS011;9052;53.494;14.376;2023-02-15T12:59:22;66.43;;;38.57;;
17852;SDS011;9052;53.494;14.376;2023-02-15T13:01:49;67.30;;;40.80;;
17852;SDS011;9052;53.494;14.376;2023-02-15T13:04:20;72.43;;;39.73;;
17852;SDS011;9052;53.494;14.376;2023-02-15T13:06:49;65.23;;;39.57;;
17852;SDS011;9052;53.494;14.376;2023-02-15T13:09:19;71.50;;;39.80;;
17852;SDS011;9052;53.494;14.376;2023-02-15T13:11:47;74.20;;;40.70;;
17852;SDS011;9052;53.494;14.376;2023-02-15T13:14:17;76.70;;;42.23;;
17852;SDS011;9052;53.494;14.376;2023-02-15T13:16:45;93.27;;;43.67;;
17852;SDS011;9052;53.494;14.376;2023-02-15T13:19:14;74.23;;;41.60;;
17852;SDS011;9052;53.494;14.376;2023-02-15T13:21:43;78.27;;;43.87;;
17852;SDS011;9052;53.494;14.376;2023-02-15T13:24:15;72.63;;;41.87;;
17852;SDS011;9052;53.494;14.376;2023-02-15T13:26:47;69.97;;;42.57;;
17852;SDS011;9052;53.494;14.376;2023-02-15T13:29:15;75.80;;;43.80;;
17852;SDS011;9052;53.494;14.376;2023-02-15T13:31:43;79.80;;;40.47;;
17852;SDS011;9052;53.494;14.376;2023-02-15T13:34:12;78.50;;;42.40;;
17852;SDS011;9052;53.494;14.376;2023-02-15T13:36:45;76.87;;;46.13;;
17852;SDS011;9052;53.494;14.376;2023-02-15T13:39:23;68.10;;;40.53;;
17852;SDS011;9052;53.494;14.376;2023-02-15T13:41:55;70.07;;;41.13;;
17852;SDS011;9052;53.494;14.376;2023-02-15T13:44:28;81.80;;;47.30;;
17852;SDS011;9052;53.494;14.376;2023-02-15T13:47:11;75.10;;;44.23;;
17852;SDS011;9052;53.494;14.376;2023-02-15T13:49:45;93.67;;;47.97;;
17852;SDS011;9052;53.494;14.376;2023-02-15T13:52:18;80.10;;;44.23;;
17852;SDS011;9052;53.494;14.376;2023-02-15T13:54:55;88.13;;;47.60;;
17852;SDS011;9052;53.494;14.376;2023-02-15T13:57:31;81.13;;;45.63;;
17852;SDS011;9052;53.494;14.376;2023-02-15T14:00:12;71.13;;;44.87;;
17852;SDS011;9052;53.494;14.376;2023-02-15T14:02:51;81.27;;;46.13;;
17852;SDS011;9052;53.494;14.376;2023-02-15T14:05:49;88.63;;;47.33;;
17852;SDS011;9052;53.494;14.376;2023-02-15T14:08:32;99.90;;;51.07;;
17852;SDS011;9052;53.494;14.376;2023-02-15T14:11:12;85.67;;;44.47;;
17852;SDS011;9052;53.494;14.376;2023-02-15T14:13:49;80.70;;;44.77;;
17852;SDS011;9052;53.494;14.376;2023-02-15T14:16:27;93.10;;;47.13;;
17852;SDS011;9052;53.494;14.376;2023-02-15T14:19:01;88.50;;;46.80;;
17852;SDS011;9052;53.494;14.376;2023-02-15T14:21:32;89.73;;;46.87;;
17852;SDS011;9052;53.494;14.376;2023-02-15T14:24:08;84.50;;;46.27;;
17852;SDS011;9052;53.494;14.376;2023-02-15T14:26:45;85.53;;;45.63;;
17852;SDS011;9052;53.494;14.376;2023-02-15T14:29:16;90.70;;;44.07;;
17852;SDS011;9052;53.494;14.376;2023-02-15T14:31:50;85.37;;;43.50;;
17852;SDS011;9052;53.494;14.376;2023-02-15T14:34:21;81.33;;;45.93;;
17852;SDS011;9052;53.494;14.376;2023-02-15T14:36:49;76.97;;;42.43;;
17852;SDS011;9052;53.494;14.376;2023-02-15T14:39:18;78.70;;;46.30;;
17852;SDS011;9052;53.494;14.376;2023-02-15T14:42:11;101.40;;;46.03;;
17852;SDS011;9052;53.494;14.376;2023-02-15T14:44:42;85.60;;;45.60;;
17852;SDS011;9052;53.494;14.376;2023-02-15T14:47:13;92.20;;;44.13;;
17852;SDS011;9052;53.494;14.376;2023-02-15T14:49:44;75.13;;;41.87;;
17852;SDS011;9052;53.494;14.376;2023-02-15T14:52:12;99.53;;;46.50;;
17852;SDS011;9052;53.494;14.376;2023-02-15T14:54:57;83.90;;;48.70;;